createdAt,value
2023-04-10T00:00:24.227Z,100525.02
2023-04-10T00:03:24.538Z,100523.05
2023-04-10T00:06:26.240Z,100523.96
2023-04-10T00:09:26.251Z,100524.77
2023-04-10T00:12:29.314Z,100527.51
2023-04-10T00:15:30.255Z,100524.26
2023-04-10T00:18:30.601Z,100528.23
2023-04-10T00:21:30.326Z,100527.23
2023-04-10T00:24:31.241Z,100523.09
2023-04-10T00:27:33.333Z,100523.29
2023-04-10T00:30:34.269Z,100524.48
2023-04-10T00:33:35.307Z,100520.73
2023-04-10T00:36:38.320Z,100521.64
2023-04-10T00:39:38.308Z,100526.02
2023-04-10T00:42:39.305Z,100523.16
2023-04-10T00:45:39.317Z,100520.08
2023-04-10T00:48:39.313Z,100523.33
2023-04-10T00:51:40.324Z,100525.06
2023-04-10T00:54:49.562Z,100524.96
2023-04-10T00:57:50.351Z,100519.23
2023-04-10T01:00:54.476Z,100517.52
2023-04-10T01:03:55.585Z,100519.34
2023-04-10T01:07:32.369Z,100520.23
2023-04-10T01:10:35.425Z,100516.14
2023-04-10T01:13:38.387Z,100514.80
2023-04-10T01:16:44.409Z,100514.24
2023-04-10T01:19:49.382Z,100511.31
2023-04-10T01:23:07.376Z,100502.95
2023-04-10T01:26:11.475Z,100506.84
2023-04-10T01:29:19.369Z,100506.89
2023-04-10T01:32:26.928Z,100508.36
2023-04-10T01:35:27.465Z,100508.86
2023-04-10T01:38:29.424Z,100506.55
2023-04-10T01:41:29.424Z,100508.86
2023-04-10T01:44:29.424Z,100508.66
2023-04-10T01:47:29.575Z,100510.23
2023-04-10T01:50:31.444Z,100510.52
2023-04-10T01:53:31.444Z,100512.63
2023-04-10T01:56:31.409Z,100508.79
2023-04-10T01:59:31.464Z,100508.53
2023-04-10T02:02:31.616Z,100513.48
2023-04-10T02:05:32.473Z,100510.71
2023-04-10T02:08:38.540Z,100517.68
2023-04-10T02:11:42.604Z,100514.30
2023-04-10T02:14:44.488Z,100520.13
2023-04-10T02:17:44.580Z,100519.67
2023-04-10T02:20:44.469Z,100515.91
2023-04-10T02:23:45.464Z,100515.45
2023-04-10T02:26:56.517Z,100515.43
2023-04-10T02:30:02.482Z,100519.22
2023-04-10T02:33:04.525Z,100520.91
2023-04-10T02:36:04.510Z,100525.05
2023-04-10T02:39:09.519Z,100526.70
2023-04-10T02:42:15.541Z,100519.81
2023-04-10T02:45:15.551Z,100520.09
2023-04-10T02:48:18.549Z,100524.67
2023-04-10T02:51:21.568Z,100522.62
2023-04-10T02:54:22.563Z,100524.48
2023-04-10T02:57:22.520Z,100520.84
2023-04-10T03:00:25.541Z,100524.78
2023-04-10T03:03:37.651Z,100528.14
2023-04-10T03:06:38.570Z,100528.94
2023-04-10T03:09:38.597Z,100527.09
2023-04-10T03:12:39.584Z,100531.55
2023-04-10T03:15:40.619Z,100531.17
2023-04-10T03:18:40.557Z,100530.19
2023-04-10T03:21:42.584Z,100534.47
2023-04-10T03:24:42.574Z,100532.98
2023-04-10T03:27:45.590Z,100535.98
2023-04-10T03:30:45.618Z,100532.66
2023-04-10T03:33:46.666Z,100532.19
2023-04-10T03:36:46.681Z,100534.55
2023-04-10T03:39:46.590Z,100539.48
2023-04-10T03:42:46.670Z,100537.37
2023-04-10T03:45:46.621Z,100540.44
2023-04-10T03:48:48.616Z,100538.11
2023-04-10T03:51:48.706Z,100534.66
2023-04-10T03:54:49.703Z,100536.54
2023-04-10T03:57:52.674Z,100536.20
2023-04-10T04:00:53.643Z,100539.73
2023-04-10T04:04:00.405Z,100544.04
2023-04-10T04:07:28.673Z,100550.35
2023-04-10T04:10:47.666Z,100551.67
2023-04-10T04:14:10.666Z,100559.67
2023-04-10T04:17:30.700Z,100554.88
2023-04-10T04:20:31.666Z,100558.15
2023-04-10T04:23:57.678Z,100560.71
2023-04-10T04:27:21.703Z,100562.95
2023-04-10T04:30:35.835Z,100562.95
2023-04-10T04:33:43.745Z,100564.31
2023-04-10T04:37:13.753Z,100570.98
2023-04-10T04:40:49.726Z,100567.87
2023-04-10T04:44:14.711Z,100570.47
2023-04-10T04:47:34.742Z,100574.65
2023-04-10T04:50:48.788Z,100574.70
2023-04-10T04:54:08.772Z,100575.95
2023-04-10T04:57:24.776Z,100577.60
2023-04-10T05:00:53.802Z,100574.95
2023-04-10T05:04:13.958Z,100580.83
2023-04-10T05:07:42.804Z,100582.73
2023-04-10T05:10:53.759Z,100585.29
2023-04-10T05:14:04.817Z,100588.22
2023-04-10T05:17:13.896Z,100592.11
2023-04-10T05:20:42.817Z,100595.28
2023-04-10T05:23:53.766Z,100599.81
2023-04-10T05:27:22.787Z,100599.21
2023-04-10T05:30:43.833Z,100600.95
2023-04-10T05:34:08.834Z,100598.32
2023-04-10T05:37:31.814Z,100599.95
2023-04-10T05:40:57.824Z,100604.33
2023-04-10T05:44:05.829Z,100606.92
2023-04-10T05:47:23.873Z,100600.79
2023-04-10T05:50:43.800Z,100607.34
2023-04-10T05:53:59.934Z,100608.42
2023-04-10T05:57:27.872Z,100609.79
2023-04-10T06:00:32.877Z,100612.08
2023-04-10T06:03:54.050Z,100608.94
2023-04-10T06:06:56.861Z,100614.17
2023-04-10T06:10:02.849Z,100617.89
2023-04-10T06:13:05.972Z,100621.93
2023-04-10T06:16:06.872Z,100618.16
2023-04-10T06:19:07.905Z,100623.51
2023-04-10T06:22:07.938Z,100629.52
2023-04-10T06:25:08.931Z,100630.11
2023-04-10T06:28:08.901Z,100625.98
2023-04-10T06:31:12.948Z,100629.73
2023-04-10T06:34:12.931Z,100626.11
2023-04-10T06:37:26.918Z,100627.20
2023-04-10T06:40:27.991Z,100630.11
2023-04-10T06:43:27.919Z,100631.08
2023-04-10T06:46:28.033Z,100631.94
2023-04-10T06:49:28.122Z,100626.17
2023-04-10T06:52:27.975Z,100631.68
2023-04-10T06:55:27.991Z,100631.33
2023-04-10T06:58:48.976Z,100626.27
2023-04-10T07:01:50.071Z,100630.22
2023-04-10T07:04:50.979Z,100629.02
2023-04-10T07:07:59.234Z,100633.50
2023-04-10T07:11:02.356Z,100635.10
2023-04-10T07:14:04.168Z,100634.42
2023-04-10T07:17:04.042Z,100633.29
2023-04-10T07:20:05.002Z,100639.27
2023-04-10T07:23:10.977Z,100636.40
2023-04-10T07:26:11.050Z,100640.63
2023-04-10T07:29:11.016Z,100641.83
2023-04-10T07:32:13.217Z,100643.73
2023-04-10T07:35:13.031Z,100645.63
2023-04-10T07:38:14.056Z,100644.24
2023-04-10T07:41:14.041Z,100650.30
2023-04-10T07:44:22.622Z,100653.35
2023-04-10T07:47:23.194Z,100653.72
2023-04-10T07:50:25.163Z,100658.23
2023-04-10T07:53:25.083Z,100659.09
2023-04-10T07:56:31.033Z,100656.02
2023-04-10T07:59:34.802Z,100651.49
2023-04-10T08:02:36.418Z,100656.39
2023-04-10T08:05:44.074Z,100660.30
2023-04-10T08:08:44.241Z,100658.08
2023-04-10T08:11:44.113Z,100661.85
2023-04-10T08:14:44.071Z,100665.84
2023-04-10T08:17:45.097Z,100662.25
2023-04-10T08:20:45.126Z,100664.48
2023-04-10T08:23:45.165Z,100668.80
2023-04-10T08:26:45.133Z,100662.84
2023-04-10T08:29:46.363Z,100665.30
2023-04-10T08:32:47.160Z,100664.94
2023-04-10T08:35:51.205Z,100663.09
2023-04-10T08:38:51.808Z,100664.24
2023-04-10T08:41:53.163Z,100660.52
2023-04-10T08:44:55.203Z,100659.25
2023-04-10T08:47:58.148Z,100659.89
2023-04-10T08:50:59.169Z,100652.02
2023-04-10T08:53:59.269Z,100653.27
2023-04-10T08:57:00.180Z,100648.52
2023-04-10T09:00:07.043Z,100654.37
2023-04-10T09:03:24.356Z,100658.42
2023-04-10T09:06:25.198Z,100658.95
2023-04-10T09:09:30.215Z,100654.65
2023-04-10T09:12:31.208Z,100655.13
2023-04-10T09:15:31.209Z,100652.41
2023-04-10T09:18:35.244Z,100654.88
2023-04-10T09:21:35.259Z,100653.85
2023-04-10T09:24:39.217Z,100658.06
2023-04-10T09:27:41.202Z,100662.32
2023-04-10T09:30:47.203Z,100661.77
2023-04-10T09:34:02.509Z,100662.20
2023-04-10T09:37:10.221Z,100667.35
2023-04-10T09:40:16.214Z,100660.04
2023-04-10T09:43:29.231Z,100660.52
2023-04-10T09:46:41.353Z,100654.15
2023-04-10T09:49:42.337Z,100648.34
2023-04-10T09:52:46.327Z,100647.16
2023-04-10T09:55:47.290Z,100646.91
2023-04-10T09:58:47.288Z,100646.77
2023-04-10T10:01:47.354Z,100653.70
2023-04-10T10:04:48.343Z,100655.66
2023-04-10T10:07:49.395Z,100652.73
2023-04-10T10:11:09.311Z,100651.48
2023-04-10T10:14:09.301Z,100650.10
2023-04-10T10:17:09.378Z,100645.74
2023-04-10T10:20:12.466Z,100642.10
2023-04-10T10:23:17.387Z,100643.33
2023-04-10T10:26:18.328Z,100642.70
2023-04-10T10:29:19.388Z,100642.27
2023-04-10T10:32:20.556Z,100643.29
2023-04-10T10:35:23.739Z,100634.78
2023-04-10T10:38:32.406Z,100634.38
2023-04-10T10:41:36.353Z,100637.69
2023-04-10T10:44:41.372Z,100640.04
2023-04-10T10:47:42.077Z,100636.42
2023-04-10T10:51:18.366Z,100638.98
2023-04-10T10:54:18.438Z,100623.08
2023-04-10T10:57:44.414Z,100635.36
2023-04-10T11:01:02.426Z,100642.27
2023-04-10T11:04:05.514Z,100638.26
2023-04-10T11:07:05.515Z,100641.10
2023-04-10T11:10:12.366Z,100640.88
2023-04-10T11:13:28.505Z,100631.57
2023-04-10T11:16:31.486Z,100631.52
2023-04-10T11:19:31.426Z,100632.02
2023-04-10T11:22:33.467Z,100633.48
2023-04-10T11:25:45.501Z,100630.55
2023-04-10T11:28:46.414Z,100631.38
2023-04-10T11:31:47.532Z,100632.55
2023-04-10T11:34:47.472Z,100631.32
2023-04-10T11:37:49.328Z,100627.37
2023-04-10T11:41:10.507Z,100625.52
2023-04-10T11:44:10.489Z,100628.36
2023-04-10T11:47:12.570Z,100623.62
2023-04-10T11:50:13.573Z,100620.45
2023-04-10T11:53:13.519Z,100620.86
2023-04-10T11:56:13.547Z,100616.83
2023-04-10T11:59:16.480Z,100615.48
2023-04-10T12:02:23.655Z,100606.77
2023-04-10T12:05:23.631Z,100610.80
2023-04-10T12:08:23.513Z,100606.60
2023-04-10T12:11:27.060Z,100608.40
2023-04-10T12:14:29.573Z,100601.80
2023-04-10T12:17:30.622Z,100591.08
2023-04-10T12:20:34.610Z,100584.13
2023-04-10T12:23:39.617Z,100581.40
2023-04-10T12:26:41.536Z,100575.46
2023-04-10T12:29:42.064Z,100570.49
2023-04-10T12:32:42.538Z,100569.29
2023-04-10T12:35:51.645Z,100569.25
2023-04-10T12:38:53.855Z,100564.95
2023-04-10T12:41:53.592Z,100564.11
2023-04-10T12:45:04.558Z,100558.41
2023-04-10T12:48:05.689Z,100561.95
2023-04-10T12:51:06.626Z,100558.83
2023-04-10T12:54:07.989Z,100566.02
2023-04-10T12:57:12.143Z,100579.23
2023-04-10T13:00:12.697Z,100584.59
2023-04-10T13:03:12.877Z,100582.68
2023-04-10T13:06:13.672Z,100581.85
2023-04-10T13:09:13.618Z,100581.75
2023-04-10T13:12:15.662Z,100586.54
2023-04-10T13:15:16.590Z,100607.31
2023-04-10T13:18:16.746Z,100616.85
2023-04-10T13:21:16.735Z,100614.73
2023-04-10T13:24:16.921Z,100622.02
2023-04-10T13:27:23.626Z,100596.88
2023-04-10T13:30:24.712Z,100587.46
2023-04-10T13:33:25.664Z,100582.13
2023-04-10T13:36:25.742Z,100572.25
2023-04-10T13:39:25.705Z,100566.39
2023-04-10T13:42:25.735Z,100560.36
2023-04-10T13:45:26.761Z,100556.31
2023-04-10T13:48:37.556Z,100546.45
2023-04-10T13:51:40.671Z,100545.07
2023-04-10T13:54:41.697Z,100544.69
2023-04-10T13:57:42.780Z,100548.82
2023-04-10T14:00:44.824Z,100549.70
2023-04-10T14:03:46.812Z,100540.41
2023-04-10T14:06:46.796Z,100537.73
2023-04-10T14:09:47.716Z,100539.33
2023-04-10T14:12:47.734Z,100540.78
2023-04-10T14:15:49.748Z,100538.98
2023-04-10T14:18:50.720Z,100535.63
2023-04-10T14:21:55.801Z,100534.34
2023-04-10T14:25:09.519Z,100536.05
2023-04-10T14:28:12.764Z,100538.48
2023-04-10T14:31:12.774Z,100532.55
2023-04-10T14:34:16.792Z,100524.20
2023-04-10T14:37:16.901Z,100522.67
2023-04-10T14:40:16.751Z,100519.13
2023-04-10T14:43:16.889Z,100522.52
2023-04-10T14:46:18.856Z,100517.96
2023-04-10T14:49:18.790Z,100510.41
2023-04-10T14:52:19.793Z,100509.52
2023-04-10T14:55:19.818Z,100506.88
2023-04-10T14:58:20.848Z,100503.44
2023-04-10T15:01:23.862Z,100499.65
2023-04-10T15:04:24.841Z,100495.23
2023-04-10T15:07:25.840Z,100492.73
2023-04-10T15:10:25.806Z,100493.27
2023-04-10T15:13:26.882Z,100485.66
2023-04-10T15:16:27.837Z,100485.45
2023-04-10T15:19:31.862Z,100486.80
2023-04-10T15:22:33.930Z,100487.67
2023-04-10T15:25:33.892Z,100485.99
2023-04-10T15:28:35.829Z,100482.73
2023-04-10T15:31:35.872Z,100474.48
2023-04-10T15:34:35.874Z,100474.91
2023-04-10T15:37:35.870Z,100469.61
2023-04-10T15:40:36.943Z,100467.55
2023-04-10T15:43:37.925Z,100466.39
2023-04-10T15:46:38.911Z,100465.73
2023-04-10T15:49:39.048Z,100466.46
2023-04-10T15:52:46.988Z,100469.92
2023-04-10T15:55:46.893Z,100466.34
2023-04-10T15:58:46.959Z,100460.55
2023-04-10T16:01:46.990Z,100460.14
2023-04-10T16:04:54.150Z,100456.92
2023-04-10T16:07:54.971Z,100457.10
2023-04-10T16:10:54.932Z,100451.74
2023-04-10T16:13:56.187Z,100453.86
2023-04-10T16:16:55.968Z,100451.64
2023-04-10T16:20:04.961Z,100448.21
2023-04-10T16:23:05.021Z,100445.23
2023-04-10T16:26:07.951Z,100448.98
2023-04-10T16:29:08.015Z,100452.01
2023-04-10T16:32:07.992Z,100453.04
2023-04-10T16:35:07.954Z,100455.59
2023-04-10T16:38:08.050Z,100452.95
2023-04-10T16:41:15.982Z,100456.90
2023-04-10T16:44:16.025Z,100458.27
2023-04-10T16:47:17.027Z,100459.28
2023-04-10T16:50:16.992Z,100463.10
2023-04-10T16:53:18.029Z,100465.71
2023-04-10T16:56:18.078Z,100464.73
2023-04-10T16:59:19.025Z,100461.58
2023-04-10T17:02:19.117Z,100462.41
2023-04-10T17:05:19.094Z,100463.59
2023-04-10T17:08:19.054Z,100465.63
2023-04-10T17:11:19.052Z,100464.73
2023-04-10T17:14:19.036Z,100463.39
2023-04-10T17:17:19.147Z,100463.57
2023-04-10T17:20:19.105Z,100468.71
2023-04-10T17:23:19.233Z,100473.02
2023-04-10T17:26:19.074Z,100475.10
2023-04-10T17:29:19.160Z,100476.52
2023-04-10T17:32:19.228Z,100476.20
2023-04-10T17:35:20.092Z,100475.64
2023-04-10T17:38:21.241Z,100477.42
2023-04-10T17:41:22.361Z,100478.38
2023-04-10T17:44:23.136Z,100477.58
2023-04-10T17:47:23.117Z,100480.77
2023-04-10T17:50:24.240Z,100483.39
2023-04-10T17:53:24.116Z,100483.35
2023-04-10T17:56:34.088Z,100488.33
2023-04-10T17:59:34.141Z,100489.30
2023-04-10T18:02:34.217Z,100489.97
2023-04-10T18:05:34.198Z,100489.91
2023-04-10T18:08:35.107Z,100492.76
2023-04-10T18:11:36.277Z,100492.53
2023-04-10T18:14:37.187Z,100491.80
2023-04-10T18:17:39.498Z,100494.66
2023-04-10T18:20:40.183Z,100496.23
2023-04-10T18:23:42.183Z,100491.58
2023-04-10T18:26:42.167Z,100493.62
2023-04-10T18:29:44.174Z,100492.58
2023-04-10T18:32:44.247Z,100494.19
2023-04-10T18:35:44.335Z,100492.77
2023-04-10T18:38:49.653Z,100495.80
2023-04-10T18:41:51.222Z,100495.02
2023-04-10T18:44:51.204Z,100494.91
2023-04-10T18:47:55.314Z,100497.20
2023-04-10T18:50:55.221Z,100496.08
2023-04-10T18:53:56.516Z,100496.55
2023-04-10T18:56:58.278Z,100494.27
2023-04-10T19:00:03.267Z,100495.30
2023-04-10T19:03:04.509Z,100499.89
2023-04-10T19:06:06.209Z,100502.36
2023-04-10T19:09:08.958Z,100505.65
2023-04-10T19:12:09.228Z,100503.40
2023-04-10T19:15:13.256Z,100499.02
2023-04-10T19:18:15.888Z,100499.84
2023-04-10T19:21:17.305Z,100500.02
2023-04-10T19:24:17.337Z,100500.98
2023-04-10T19:27:17.313Z,100498.67
2023-04-10T19:30:17.257Z,100498.19
2023-04-10T19:33:17.402Z,100497.09
2023-04-10T19:36:18.439Z,100497.54
2023-04-10T19:39:18.415Z,100493.08
2023-04-10T19:42:20.460Z,100492.84
2023-04-10T19:45:20.283Z,100490.39
2023-04-10T19:48:21.338Z,100491.91
2023-04-10T19:51:30.822Z,100497.23
2023-04-10T19:54:32.329Z,100494.73
2023-04-10T19:57:32.374Z,100491.96
2023-04-10T20:00:32.356Z,100487.83
2023-04-10T20:03:34.524Z,100484.80
2023-04-10T20:06:34.360Z,100491.22
2023-04-10T20:09:34.371Z,100487.41
2023-04-10T20:12:35.400Z,100486.10
2023-04-10T20:15:41.664Z,100487.71
2023-04-10T20:18:43.352Z,100480.69
2023-04-10T20:21:43.365Z,100474.91
2023-04-10T20:24:43.346Z,100472.92
2023-04-10T20:27:43.395Z,100478.55
2023-04-10T20:30:45.394Z,100480.82
2023-04-10T20:33:45.473Z,100479.72
2023-04-10T20:36:46.367Z,100479.42
2023-04-10T20:39:46.419Z,100476.91
2023-04-10T20:42:48.169Z,100477.38
2023-04-10T20:45:50.017Z,100474.52
2023-04-10T20:48:50.379Z,100480.61
2023-04-10T20:51:51.675Z,100477.45
2023-04-10T20:54:54.854Z,100475.16
2023-04-10T20:58:03.546Z,100473.84
2023-04-10T21:01:12.539Z,100471.23
2023-04-10T21:04:12.443Z,100466.96
2023-04-10T21:07:12.444Z,100461.21
2023-04-10T21:10:13.486Z,100457.14
2023-04-10T21:13:14.586Z,100461.69
2023-04-10T21:16:14.518Z,100458.73
2023-04-10T21:19:14.467Z,100456.10
2023-04-10T21:22:16.566Z,100456.08
2023-04-10T21:25:16.499Z,100462.27
2023-04-10T21:28:17.596Z,100458.80
2023-04-10T21:31:17.615Z,100461.76
2023-04-10T21:34:17.517Z,100461.73
2023-04-10T21:37:17.503Z,100457.81
2023-04-10T21:40:17.501Z,100461.89
2023-04-10T21:43:18.469Z,100465.67
2023-04-10T21:46:21.598Z,100464.66
2023-04-10T21:49:21.493Z,100462.35
2023-04-10T21:52:22.553Z,100458.39
2023-04-10T21:55:23.519Z,100462.90
2023-04-10T21:58:23.575Z,100457.55
2023-04-10T22:01:23.562Z,100454.63
2023-04-10T22:04:23.612Z,100453.38
2023-04-10T22:07:25.518Z,100452.90
2023-04-10T22:10:25.610Z,100446.73
2023-04-10T22:13:31.163Z,100443.95
2023-04-10T22:16:31.611Z,100446.64
2023-04-10T22:19:32.592Z,100443.58
2023-04-10T22:22:33.634Z,100443.92
2023-04-10T22:25:35.004Z,100440.80
2023-04-10T22:28:36.631Z,100438.82
2023-04-10T22:31:36.615Z,100438.02
2023-04-10T22:34:36.593Z,100435.86
2023-04-10T22:37:38.641Z,100435.59
2023-04-10T22:40:39.603Z,100436.73
2023-04-10T22:43:40.620Z,100437.95
2023-04-10T22:46:42.732Z,100433.11
2023-04-10T22:49:43.679Z,100429.18
2023-04-10T22:52:46.633Z,100430.09
2023-04-10T22:55:46.654Z,100428.96
2023-04-10T22:58:55.020Z,100428.41
2023-04-10T23:01:56.739Z,100423.72
2023-04-10T23:04:56.620Z,100420.34
2023-04-10T23:07:57.643Z,100416.86
2023-04-10T23:10:57.684Z,100419.45
2023-04-10T23:13:58.721Z,100416.83
2023-04-10T23:16:59.678Z,100411.80
2023-04-10T23:20:05.645Z,100409.64
2023-04-10T23:23:07.693Z,100405.90
2023-04-10T23:26:10.674Z,100407.64
2023-04-10T23:29:10.683Z,100400.29
2023-04-10T23:32:10.711Z,100399.63
2023-04-10T23:35:11.717Z,100395.45
2023-04-10T23:38:12.745Z,100391.45
2023-04-10T23:41:19.709Z,100392.81
2023-04-10T23:44:20.837Z,100386.71
2023-04-10T23:47:20.827Z,100383.30
2023-04-10T23:50:20.715Z,100380.45
2023-04-10T23:53:20.925Z,100378.65
2023-04-10T23:56:24.715Z,100374.34
2023-04-10T23:59:24.784Z,100377.80
